Time,TemperatureF,DewpointF,PressureIn,WindDirection,WindDirectionDegrees,WindSpeedMPH,WindSpeedGustMPH,Humidity,HourlyPrecipIn,Conditions,Clouds,dailyrainin,SoftwareType,DateUTC
2013-04-19 00:07:00,50.9,48.0,30.31,WNW,294,2.0,3.0,90,0.00,,,0.00,weatherlink.com 1.10,2013-04-19 04:07:00,
2013-04-19 00:22:00,50.8,48.0,30.30,WNW,294,0.0,2.0,90,0.00,,,0.00,weatherlink.com 1.10,2013-04-19 04:22:00,
2013-04-19 00:37:00,50.8,48.0,30.29,WNW,294,1.0,2.0,91,0.00,,,0.00,weatherlink.com 1.10,2013-04-19 04:37:00,
2013-04-19 00:52:00,50.8,49.0,30.29,WNW,294,0.0,3.0,92,0.00,,,0.00,weatherlink.com 1.10,2013-04-19 04:52:00,
2013-04-19 01:07:00,50.8,49.0,30.27,WNW,294,0.0,3.0,93,0.00,,,0.00,weatherlink.com 1.10,2013-04-19 05:07:00,
2013-04-19 01:22:00,50.9,49.0,30.27,WNW,294,0.0,2.0,94,0.00,,,0.00,weatherlink.com 1.10,2013-04-19 05:22:00,
2013-04-19 01:37:00,51.0,50.0,30.26,WNW,294,0.0,1.0,95,0.00,,,0.00,weatherlink.com 1.10,2013-04-19 05:37:00,
2013-04-19 01:52:00,51.3,50.0,30.26,WSW,237,0.0,4.0,96,0.00,,,0.00,weatherlink.com 1.10,2013-04-19 05:52:00,
2013-04-19 02:07:00,51.4,51.0,30.25,WSW,237,0.0,1.0,97,0.00,,,0.00,weatherlink.com 1.10,2013-04-19 06:07:00,
2013-04-19 02:22:00,51.9,51.0,30.25,South,169,0.0,5.0,97,0.00,,,0.00,weatherlink.com 1.10,2013-04-19 06:22:00,
2013-04-19 02:37:00,52.3,52.0,30.24,SSE,151,0.0,3.0,98,0.00,,,0.00,weatherlink.com 1.10,2013-04-19 06:37:00,
2013-04-19 02:52:00,52.6,52.0,30.24,South,182,0.0,4.0,98,0.00,,,0.00,weatherlink.com 1.10,2013-04-19 06:52:00,
2013-04-19 03:07:00,52.6,52.0,30.23,SSE,148,0.0,4.0,98,0.00,,,0.00,weatherlink.com 1.10,2013-04-19 07:07:00,
2013-04-19 03:22:00,52.8,52.0,30.21,SSE,155,0.0,2.0,98,0.00,,,0.00,weatherlink.com 1.10,2013-04-19 07:22:00,
2013-04-19 03:37:00,52.7,52.0,30.20,SSE,161,0.0,2.0,98,0.00,,,0.00,weatherlink.com 1.10,2013-04-19 07:37:00,
2013-04-19 03:52:00,53.0,53.0,30.18,South,188,0.0,7.0,98,0.00,,,0.00,weatherlink.com 1.10,2013-04-19 07:52:00,
2013-04-19 04:07:00,53.2,53.0,30.18,South,182,0.0,5.0,98,0.00,,,0.00,weatherlink.com 1.10,2013-04-19 08:07:00,
2013-04-19 04:22:00,53.2,53.0,30.18,South,177,0.0,2.0,98,0.00,,,0.00,weatherlink.com 1.10,2013-04-19 08:22:00,
2013-04-19 04:37:00,53.3,53.0,30.18,ESE,118,1.0,4.0,98,0.00,,,0.00,weatherlink.com 1.10,2013-04-19 08:37:00,
2013-04-19 04:52:00,53.5,53.0,30.19,SSE,157,0.0,4.0,98,0.00,,,0.00,weatherlink.com 1.10,2013-04-19 08:52:00,
2013-04-19 05:07:00,53.9,53.0,30.18,South,172,1.0,3.0,98,0.00,,,0.00,weatherlink.com 1.10,2013-04-19 09:07:00,
2013-04-19 05:22:00,54.1,54.0,30.18,SSE,148,0.0,4.0,98,0.01,,,0.01,weatherlink.com 1.10,2013-04-19 09:22:00,
2013-04-19 05:37:00,53.9,53.0,30.17,SSE,149,0.0,3.0,98,0.01,,,0.01,weatherlink.com 1.10,2013-04-19 09:37:00,
2013-04-19 05:52:00,54.1,54.0,30.16,SSE,153,2.0,6.0,98,0.01,,,0.01,weatherlink.com 1.10,2013-04-19 09:52:00,
2013-04-19 06:07:00,54.4,54.0,30.16,South,191,1.0,5.0,99,0.01,,,0.01,weatherlink.com 1.10,2013-04-19 10:07:00,
2013-04-19 06:22:00,54.6,54.0,30.16,South,186,1.0,3.0,99,0.00,,,0.01,weatherlink.com 1.10,2013-04-19 10:22:00,
2013-04-19 06:37:00,54.8,55.0,30.15,SSW,207,1.0,3.0,99,0.00,,,0.01,weatherlink.com 1.10,2013-04-19 10:37:00,
2013-04-19 06:52:00,55.3,55.0,30.15,SSW,198,3.0,6.0,99,0.00,,,0.01,weatherlink.com 1.10,2013-04-19 10:52:00,
2013-04-19 07:07:00,55.5,55.0,30.16,South,175,2.0,3.0,99,0.00,,,0.01,weatherlink.com 1.10,2013-04-19 11:07:00,
2013-04-19 07:22:00,55.8,56.0,30.17,ENE,76,2.0,5.0,99,0.00,,,0.01,weatherlink.com 1.10,2013-04-19 11:22:00,
2013-04-19 07:37:00,56.0,56.0,30.17,ESE,115,2.0,6.0,99,0.00,,,0.01,weatherlink.com 1.10,2013-04-19 11:37:00,
2013-04-19 07:52:00,56.3,56.0,30.16,SSE,157,2.0,7.0,99,0.00,,,0.01,weatherlink.com 1.10,2013-04-19 11:52:00,
2013-04-19 08:07:00,56.6,56.0,30.15,SSW,192,3.0,7.0,99,0.00,,,0.01,weatherlink.com 1.10,2013-04-19 12:07:00,
2013-04-19 08:22:00,56.9,57.0,30.14,South,188,1.0,5.0,99,0.00,,,0.01,weatherlink.com 1.10,2013-04-19 12:22:00,
2013-04-19 08:37:00,57.2,57.0,30.14,South,186,4.0,6.0,99,0.00,,,0.01,weatherlink.com 1.10,2013-04-19 12:37:00,
2013-04-19 08:52:00,57.5,57.0,30.14,South,175,1.0,10.0,99,0.00,,,0.01,weatherlink.com 1.10,2013-04-19 12:52:00,
2013-04-19 09:07:00,57.6,57.0,30.14,South,170,1.0,6.0,99,0.00,,,0.01,weatherlink.com 1.10,2013-04-19 13:07:00,
2013-04-19 09:22:00,57.6,57.0,30.14,South,191,0.0,4.0,99,0.00,,,0.01,weatherlink.com 1.10,2013-04-19 13:22:00,
2013-04-19 09:38:00,57.6,57.0,30.13,SSW,198,1.0,3.0,99,0.00,,,0.01,weatherlink.com 1.10,2013-04-19 13:38:00,
2013-04-19 09:53:00,57.7,58.0,30.12,East,85,0.0,3.0,99,0.00,,,0.01,weatherlink.com 1.10,2013-04-19 13:53:00,
2013-04-19 10:08:00,58.0,58.0,30.11,SSE,151,1.0,5.0,99,0.00,,,0.00,weatherlink.com 1.10,2013-04-19 14:08:00,
2013-04-19 10:23:00,58.3,58.0,30.10,ESE,120,0.0,5.0,99,0.00,,,0.00,weatherlink.com 1.10,2013-04-19 14:23:00,
2013-04-19 10:38:00,58.7,59.0,30.09,ESE,118,1.0,3.0,99,0.00,,,0.00,weatherlink.com 1.10,2013-04-19 14:38:00,
2013-04-19 10:53:00,59.0,59.0,30.08,WSW,257,2.0,5.0,99,0.00,,,0.00,weatherlink.com 1.10,2013-04-19 14:53:00,
2013-04-19 11:08:00,59.4,59.0,30.08,East,93,2.0,7.0,98,0.01,,,0.01,weatherlink.com 1.10,2013-04-19 15:08:00,
2013-04-19 11:23:00,59.6,59.0,30.07,SE,126,1.0,7.0,98,0.01,,,0.01,weatherlink.com 1.10,2013-04-19 15:23:00,
2013-04-19 11:38:00,59.9,59.0,30.07,SW,215,0.0,4.0,98,0.01,,,0.01,weatherlink.com 1.10,2013-04-19 15:38:00,
2013-04-19 11:53:00,60.5,60.0,30.06,South,190,5.0,6.0,97,0.01,,,0.01,weatherlink.com 1.10,2013-04-19 15:53:00,
2013-04-19 12:08:00,61.4,60.0,30.05,ENE,57,1.0,6.0,95,0.00,,,0.01,weatherlink.com 1.10,2013-04-19 16:08:00,
2013-04-19 12:23:00,62.9,61.0,30.02,WNW,292,2.0,7.0,94,0.00,,,0.01,weatherlink.com 1.10,2013-04-19 16:23:00,
2013-04-19 12:38:00,65.3,61.0,30.03,SSE,156,3.0,11.0,87,0.00,,,0.01,weatherlink.com 1.10,2013-04-19 16:38:00,
2013-04-19 12:53:00,65.3,61.0,30.02,ESE,116,5.0,10.0,85,0.00,,,0.01,weatherlink.com 1.10,2013-04-19 16:53:00,
2013-04-19 13:08:00,64.8,61.0,30.01,SE,136,3.0,8.0,86,0.00,,,0.01,weatherlink.com 1.10,2013-04-19 17:08:00,
2013-04-19 13:23:00,64.5,61.0,30.01,SW,228,2.0,8.0,87,0.00,,,0.01,weatherlink.com 1.10,2013-04-19 17:23:00,
2013-04-19 13:38:00,64.2,61.0,30.00,South,182,3.0,8.0,89,0.00,,,0.01,weatherlink.com 1.10,2013-04-19 17:38:00,
2013-04-19 13:53:00,65.9,62.0,30.00,West,273,4.0,8.0,87,0.00,,,0.01,weatherlink.com 1.10,2013-04-19 17:53:00,
2013-04-19 14:08:00,67.0,61.0,29.99,SE,140,4.0,10.0,82,0.00,,,0.01,weatherlink.com 1.10,2013-04-19 18:08:00,
2013-04-19 14:23:00,67.7,62.0,29.98,NW,319,2.0,7.0,81,0.00,,,0.01,weatherlink.com 1.10,2013-04-19 18:23:00,
2013-04-19 14:38:00,68.3,62.0,29.97,SSW,200,2.0,10.0,79,0.00,,,0.01,weatherlink.com 1.10,2013-04-19 18:38:00,
2013-04-19 14:53:00,69.0,62.0,29.96,NNE,18,3.0,11.0,77,0.00,,,0.01,weatherlink.com 1.10,2013-04-19 18:53:00,
2013-04-19 15:09:00,68.3,61.0,29.95,ESE,121,4.0,8.0,78,0.00,,,0.01,weatherlink.com 1.10,2013-04-19 19:09:00,
2013-04-19 15:24:00,68.0,62.0,29.94,SSE,167,0.0,13.0,80,0.00,,,0.01,weatherlink.com 1.10,2013-04-19 19:24:00,
2013-04-19 15:39:00,69.0,62.0,29.92,ENE,74,1.0,11.0,79,0.00,,,0.01,weatherlink.com 1.10,2013-04-19 19:39:00,
2013-04-19 15:54:00,69.7,63.0,29.89,SW,223,1.0,13.0,79,0.00,,,0.01,weatherlink.com 1.10,2013-04-19 19:54:00,
2013-04-19 16:09:00,70.6,63.0,29.88,NW,305,0.0,8.0,77,0.00,,,0.01,weatherlink.com 1.10,2013-04-19 20:09:00,
2013-04-19 16:24:00,70.8,63.0,29.88,East,93,2.0,8.0,75,0.00,,,0.01,weatherlink.com 1.10,2013-04-19 20:24:00,
2013-04-19 16:39:00,69.8,62.0,29.88,ESE,109,2.0,9.0,76,0.00,,,0.01,weatherlink.com 1.10,2013-04-19 20:39:00,
2013-04-19 16:54:00,69.3,62.0,29.87,East,98,5.0,10.0,77,0.00,,,0.01,weatherlink.com 1.10,2013-04-19 20:54:00,
2013-04-19 17:09:00,69.1,62.0,29.86,WSW,246,4.0,13.0,77,0.00,,,0.01,weatherlink.com 1.10,2013-04-19 21:09:00,
2013-04-19 17:24:00,68.9,61.0,29.86,SSE,167,2.0,8.0,77,0.00,,,0.01,weatherlink.com 1.10,2013-04-19 21:24:00,
2013-04-19 17:39:00,68.2,61.0,29.86,WNW,292,1.0,7.0,78,0.00,,,0.01,weatherlink.com 1.10,2013-04-19 21:39:00,
2013-04-19 17:54:00,67.2,61.0,29.87,South,177,2.0,6.0,79,0.00,,,0.01,weatherlink.com 1.10,2013-04-19 21:54:00,
2013-04-19 18:09:00,66.2,60.0,29.87,SSW,201,3.0,9.0,81,0.00,,,0.01,weatherlink.com 1.10,2013-04-19 22:09:00,
2013-04-19 18:24:00,65.1,60.0,29.86,WNW,286,1.0,10.0,83,0.00,,,0.01,weatherlink.com 1.10,2013-04-19 22:24:00,
2013-04-19 18:39:00,64.6,60.0,29.86,ENE,74,3.0,7.0,84,0.00,,,0.01,weatherlink.com 1.10,2013-04-19 22:39:00,
2013-04-19 18:54:00,64.3,59.0,29.85,West,263,3.0,6.0,84,0.00,,,0.01,weatherlink.com 1.10,2013-04-19 22:54:00,
2013-04-19 19:09:00,63.9,59.0,29.84,NW,323,5.0,8.0,85,0.00,,,0.01,weatherlink.com 1.10,2013-04-19 23:09:00,
2013-04-19 19:24:00,63.4,59.0,29.84,South,180,2.0,8.0,86,0.00,,,0.01,weatherlink.com 1.10,2013-04-19 23:24:00,
2013-04-19 19:39:00,63.1,59.0,29.83,South,188,4.0,5.0,87,0.00,,,0.01,weatherlink.com 1.10,2013-04-19 23:39:00,
2013-04-19 19:54:00,63.4,60.0,29.83,East,82,0.0,7.0,87,0.00,,,0.01,weatherlink.com 1.10,2013-04-19 23:54:00,
2013-04-19 20:09:00,63.6,60.0,29.83,East,92,7.0,9.0,88,0.00,,,0.01,weatherlink.com 1.10,2013-04-20 00:09:00,
2013-04-19 20:24:00,63.6,60.0,29.82,South,177,9.0,9.0,88,0.00,,,0.01,weatherlink.com 1.10,2013-04-20 00:24:00,
2013-04-19 20:39:00,63.3,60.0,29.82,South,172,2.0,9.0,89,0.00,,,0.01,weatherlink.com 1.10,2013-04-20 00:39:00,
2013-04-19 20:54:00,63.2,60.0,29.82,SSE,152,5.0,13.0,89,0.00,,,0.01,weatherlink.com 1.10,2013-04-20 00:54:00,
2013-04-19 21:09:00,63.0,60.0,29.83,ESE,117,5.0,11.0,90,0.00,,,0.01,weatherlink.com 1.10,2013-04-20 01:09:00,
2013-04-19 21:24:00,62.6,60.0,29.83,SSE,165,2.0,10.0,91,0.00,,,0.01,weatherlink.com 1.10,2013-04-20 01:24:00,
2013-04-19 21:39:00,62.3,60.0,29.84,South,178,4.0,12.0,92,0.00,,,0.01,weatherlink.com 1.10,2013-04-20 01:39:00,
2013-04-19 21:54:00,62.0,60.0,29.89,South,188,11.0,17.0,93,0.00,,,0.01,weatherlink.com 1.10,2013-04-20 01:54:00,
2013-04-19 22:09:00,62.3,60.0,29.88,NE,38,5.0,10.0,92,0.11,,,0.12,weatherlink.com 1.10,2013-04-20 02:09:00,
2013-04-19 22:24:00,61.5,60.0,29.86,North,5,4.0,5.0,94,0.23,,,0.24,weatherlink.com 1.10,2013-04-20 02:24:00,
2013-04-19 22:39:00,61.0,60.0,29.87,ENE,78,0.0,4.0,96,0.28,,,0.29,weatherlink.com 1.10,2013-04-20 02:39:00,
2013-04-19 22:54:00,61.0,60.0,29.88,ESE,102,4.0,4.0,96,0.32,,,0.33,weatherlink.com 1.10,2013-04-20 02:54:00,
2013-04-19 23:09:00,60.8,60.0,29.87,SE,134,2.0,3.0,97,0.26,,,0.38,weatherlink.com 1.10,2013-04-20 03:09:00,
2013-04-19 23:24:00,60.3,59.0,29.84,WSW,250,0.0,4.0,96,0.15,,,0.40,weatherlink.com 1.10,2013-04-20 03:24:00,
2013-04-19 23:39:00,57.3,53.0,29.88,SW,219,10.0,21.0,84,0.14,,,0.43,weatherlink.com 1.10,2013-04-20 03:39:00,
2013-04-19 23:54:00,52.8,48.0,29.89,SSE,161,9.0,18.0,83,0.12,,,0.46,weatherlink.com 1.10,2013-04-20 03:54:00,